createdAt,value
2023-05-14T00:00:42.923Z,100707.69
2023-05-14T00:03:11.825Z,100706.03
2023-05-14T00:05:42.176Z,100700.75
2023-05-14T00:08:10.617Z,100703.50
2023-05-14T00:10:43.230Z,100702.91
2023-05-14T00:13:11.194Z,100706.34
2023-05-14T00:15:44.753Z,100700.47
2023-05-14T00:18:17.576Z,100698.66
2023-05-14T00:20:48.245Z,100699.78
2023-05-14T00:23:16.809Z,100705.19
2023-05-14T00:25:46.106Z,100697.94
2023-05-14T00:28:15.906Z,100702.06
2023-05-14T00:30:44.454Z,100697.06
2023-05-14T00:33:12.547Z,100704.50
2023-05-14T00:35:42.762Z,100699.50
2023-05-14T00:38:16.830Z,100685.69
2023-05-14T00:40:51.866Z,100682.31
2023-05-14T00:43:23.890Z,100681.75
2023-05-14T00:45:53.935Z,100690.50
2023-05-14T00:48:23.505Z,100690.41
2023-05-14T00:50:52.422Z,100691.59
2023-05-14T00:53:21.769Z,100687.78
2023-05-14T00:55:52.150Z,100686.13
2023-05-14T00:58:21.225Z,100684.56
2023-05-14T01:00:49.361Z,100681.34
2023-05-14T01:03:17.488Z,100678.94
2023-05-14T01:05:56.605Z,100679.78
2023-05-14T01:08:33.077Z,100673.66
2023-05-14T01:11:08.904Z,100676.16
2023-05-14T01:13:48.410Z,100668.13
2023-05-14T01:16:20.316Z,100678.69
2023-05-14T01:18:53.713Z,100670.88
2023-05-14T01:21:37.831Z,100667.66
2023-05-14T01:24:09.596Z,100670.28
2023-05-14T01:26:37.867Z,100666.84
2023-05-14T01:29:12.725Z,100666.94
2023-05-14T01:31:44.168Z,100660.09
2023-05-14T01:34:15.288Z,100665.41
2023-05-14T01:36:49.086Z,100663.25
2023-05-14T01:39:17.862Z,100667.00
2023-05-14T01:41:47.788Z,100668.91
2023-05-14T01:44:19.279Z,100662.81
2023-05-14T01:46:47.668Z,100675.16
2023-05-14T01:49:21.295Z,100665.25
2023-05-14T01:51:51.446Z,100669.78
2023-05-14T01:54:20.942Z,100667.41
2023-05-14T01:56:49.081Z,100669.94
2023-05-14T01:59:18.411Z,100668.00
2023-05-14T02:01:50.170Z,100663.91
2023-05-14T02:04:19.249Z,100659.47
2023-05-14T02:06:48.536Z,100664.88
2023-05-14T02:09:17.865Z,100663.19
2023-05-14T02:11:45.807Z,100665.84
2023-05-14T02:14:15.379Z,100664.28
2023-05-14T02:16:43.851Z,100658.31
2023-05-14T02:19:12.061Z,100656.47
2023-05-14T02:21:41.054Z,100652.91
2023-05-14T02:24:09.475Z,100659.97
2023-05-14T02:26:38.996Z,100660.09
2023-05-14T02:29:07.199Z,100654.81
2023-05-14T02:31:36.540Z,100651.34
2023-05-14T02:34:06.642Z,100646.19
2023-05-14T02:36:36.669Z,100647.97
2023-05-14T02:39:05.469Z,100651.84
2023-05-14T02:41:36.479Z,100648.34
2023-05-14T02:44:07.176Z,100649.31
2023-05-14T02:46:36.029Z,100646.91
2023-05-14T02:49:04.821Z,100643.41
2023-05-14T02:51:33.058Z,100644.25
2023-05-14T02:54:00.946Z,100641.03
2023-05-14T02:56:29.154Z,100649.75
2023-05-14T02:58:57.896Z,100645.44
2023-05-14T03:01:27.749Z,100645.13
2023-05-14T03:03:56.358Z,100648.25
2023-05-14T03:06:24.546Z,100643.94
2023-05-14T03:08:54.398Z,100651.00
2023-05-14T03:11:23.149Z,100659.88
2023-05-14T03:13:51.624Z,100652.81
2023-05-14T03:16:20.330Z,100646.69
2023-05-14T03:18:52.469Z,100647.38
2023-05-14T03:21:20.716Z,100651.72
2023-05-14T03:23:50.883Z,100646.47
2023-05-14T03:26:21.566Z,100646.47
2023-05-14T03:28:51.351Z,100640.44
2023-05-14T03:31:19.941Z,100638.66
2023-05-14T03:33:49.819Z,100640.69
2023-05-14T03:36:21.521Z,100646.94
2023-05-14T03:38:50.811Z,100636.59
2023-05-14T03:41:20.008Z,100641.06
2023-05-14T03:43:48.674Z,100649.09
2023-05-14T03:46:16.963Z,100647.41
2023-05-14T03:48:44.996Z,100640.22
2023-05-14T03:51:19.970Z,100636.59
2023-05-14T03:53:50.176Z,100644.53
2023-05-14T03:56:19.109Z,100647.75
2023-05-14T03:58:48.608Z,100640.31
2023-05-14T04:01:16.598Z,100646.19
2023-05-14T04:03:44.868Z,100643.31
2023-05-14T04:06:16.565Z,100644.50
2023-05-14T04:08:46.470Z,100634.31
2023-05-14T04:11:14.746Z,100648.72
2023-05-14T04:13:43.148Z,100635.03
2023-05-14T04:16:12.874Z,100643.38
2023-05-14T04:18:42.065Z,100643.47
2023-05-14T04:21:12.841Z,100637.44
2023-05-14T04:23:45.720Z,100640.88
2023-05-14T04:26:15.748Z,100641.22
2023-05-14T04:28:44.096Z,100636.13
2023-05-14T04:31:12.157Z,100632.84
2023-05-14T04:33:43.295Z,100635.81
2023-05-14T04:36:11.857Z,100642.38
2023-05-14T04:38:39.941Z,100641.75
2023-05-14T04:41:08.146Z,100639.28
2023-05-14T04:43:37.828Z,100638.50
2023-05-14T04:46:06.324Z,100632.44
2023-05-14T04:48:35.060Z,100642.06
2023-05-14T04:51:07.082Z,100638.78
2023-05-14T04:53:37.932Z,100645.13
2023-05-14T04:56:06.546Z,100645.31
2023-05-14T04:58:35.333Z,100647.13
2023-05-14T05:01:09.335Z,100648.16
2023-05-14T05:03:38.296Z,100648.19
2023-05-14T05:06:10.460Z,100652.53
2023-05-14T05:08:41.429Z,100648.22
2023-05-14T05:11:14.131Z,100651.59
2023-05-14T05:13:44.267Z,100653.28
2023-05-14T05:16:14.401Z,100654.41
2023-05-14T05:18:44.527Z,100642.72
2023-05-14T05:21:14.004Z,100650.41
2023-05-14T05:23:46.326Z,100651.09
2023-05-14T05:26:14.872Z,100649.28
2023-05-14T05:28:43.726Z,100654.72
2023-05-14T05:31:13.243Z,100652.75
2023-05-14T05:33:43.892Z,100648.31
2023-05-14T05:36:17.042Z,100648.16
2023-05-14T05:38:45.724Z,100650.41
2023-05-14T05:41:14.833Z,100646.06
2023-05-14T05:43:43.343Z,100642.88
2023-05-14T05:46:15.557Z,100636.31
2023-05-14T05:48:46.467Z,100644.69
2023-05-14T05:51:15.212Z,100644.13
2023-05-14T05:53:46.802Z,100637.38
2023-05-14T05:56:15.692Z,100641.50
2023-05-14T05:58:47.450Z,100639.56
2023-05-14T06:01:17.583Z,100642.84
2023-05-14T06:03:47.730Z,100631.91
2023-05-14T06:06:19.336Z,100630.75
2023-05-14T06:08:47.449Z,100640.19
2023-05-14T06:11:17.016Z,100644.63
2023-05-14T06:13:45.536Z,100636.03
2023-05-14T06:16:14.131Z,100635.06
2023-05-14T06:18:44.817Z,100637.38
2023-05-14T06:21:16.136Z,100633.78
2023-05-14T06:23:46.094Z,100639.38
2023-05-14T06:26:14.354Z,100637.91
2023-05-14T06:28:42.219Z,100643.63
2023-05-14T06:31:10.805Z,100640.44
2023-05-14T06:34:05.942Z,100635.84
2023-05-14T06:36:34.357Z,100636.91
2023-05-14T06:39:03.479Z,100631.78
2023-05-14T06:41:34.447Z,100635.06
2023-05-14T06:44:03.971Z,100636.22
2023-05-14T06:46:34.437Z,100632.63
2023-05-14T06:49:02.809Z,100633.59
2023-05-14T06:51:34.373Z,100634.28
2023-05-14T06:54:03.849Z,100636.13
2023-05-14T06:56:32.037Z,100623.50
2023-05-14T06:59:01.189Z,100618.88
2023-05-14T07:01:31.776Z,100619.72
2023-05-14T07:03:59.949Z,100622.06
2023-05-14T07:06:28.491Z,100618.28
2023-05-14T07:09:01.850Z,100623.00
2023-05-14T07:11:30.814Z,100617.31
2023-05-14T07:14:02.041Z,100614.81
2023-05-14T07:16:30.096Z,100604.69
2023-05-14T07:19:01.082Z,100611.25
2023-05-14T07:21:29.296Z,100592.91
2023-05-14T07:24:00.182Z,100595.19
2023-05-14T07:26:29.563Z,100594.44
2023-05-14T07:29:00.311Z,100592.81
2023-05-14T07:31:28.966Z,100582.66
2023-05-14T07:33:59.557Z,100585.16
2023-05-14T07:36:28.436Z,100586.31
2023-05-14T07:39:05.101Z,100582.97
2023-05-14T07:41:33.464Z,100583.50
2023-05-14T07:44:02.231Z,100580.53
2023-05-14T07:46:33.459Z,100574.44
2023-05-14T07:49:01.721Z,100577.81
2023-05-14T07:51:30.337Z,100572.09
2023-05-14T07:54:00.007Z,100564.59
2023-05-14T07:56:33.384Z,100572.75
2023-05-14T07:59:07.146Z,100569.06
2023-05-14T08:01:39.071Z,100564.75
2023-05-14T08:04:08.144Z,100555.91
2023-05-14T08:06:39.215Z,100562.88
2023-05-14T08:09:08.698Z,100552.25
2023-05-14T08:11:39.194Z,100557.25
2023-05-14T08:14:07.495Z,100556.09
2023-05-14T08:16:38.674Z,100558.91
2023-05-14T08:19:08.391Z,100560.59
2023-05-14T08:21:36.594Z,100550.56
2023-05-14T08:24:09.648Z,100559.50
2023-05-14T08:26:41.951Z,100553.31
2023-05-14T08:29:14.058Z,100558.66
2023-05-14T08:31:44.281Z,100554.16
2023-05-14T08:34:12.250Z,100557.16
2023-05-14T08:36:42.719Z,100560.41
2023-05-14T08:39:14.130Z,100554.44
2023-05-14T08:41:44.490Z,100554.31
2023-05-14T08:44:16.163Z,100547.63
2023-05-14T08:46:44.900Z,100548.47
2023-05-14T08:49:23.281Z,100542.81
2023-05-14T08:51:56.532Z,100540.44
2023-05-14T08:54:26.569Z,100541.22
2023-05-14T08:56:56.797Z,100531.50
2023-05-14T08:59:25.093Z,100543.00
2023-05-14T09:01:55.415Z,100537.94
2023-05-14T09:04:26.382Z,100540.56
2023-05-14T09:06:56.610Z,100537.22
2023-05-14T09:09:24.637Z,100536.53
2023-05-14T09:11:55.189Z,100538.53
2023-05-14T09:14:24.502Z,100536.97
2023-05-14T09:16:54.828Z,100533.13
2023-05-14T09:19:22.982Z,100531.94
2023-05-14T09:21:51.050Z,100528.78
2023-05-14T09:24:24.146Z,100519.78
2023-05-14T09:26:54.000Z,100524.88
2023-05-14T09:29:26.137Z,100523.50
2023-05-14T09:31:55.788Z,100513.59
2023-05-14T09:34:27.864Z,100513.19
2023-05-14T09:36:57.592Z,100515.81
2023-05-14T09:39:26.457Z,100509.56
2023-05-14T09:41:55.925Z,100513.31
2023-05-14T09:44:26.814Z,100516.41
2023-05-14T09:46:57.342Z,100515.09
2023-05-14T09:49:26.005Z,100514.78
2023-05-14T09:51:54.346Z,100504.84
2023-05-14T09:54:23.550Z,100507.75
2023-05-14T09:56:52.553Z,100508.41
2023-05-14T09:59:22.673Z,100504.28
2023-05-14T10:01:54.154Z,100505.47
2023-05-14T10:04:26.599Z,100493.38
2023-05-14T10:06:56.704Z,100503.25
2023-05-14T10:09:29.183Z,100501.50
2023-05-14T10:12:02.151Z,100498.81
2023-05-14T10:14:39.557Z,100496.03
2023-05-14T10:17:18.425Z,100499.72
2023-05-14T10:19:52.506Z,100500.34
2023-05-14T10:22:24.977Z,100504.63
2023-05-14T10:24:54.006Z,100502.03
2023-05-14T10:27:24.965Z,100498.34
2023-05-14T10:29:55.736Z,100502.31
2023-05-14T10:32:27.572Z,100505.59
2023-05-14T10:35:03.457Z,100502.47
2023-05-14T10:37:33.247Z,100498.06
2023-05-14T10:40:06.508Z,100497.69
2023-05-14T10:42:37.520Z,100496.22
2023-05-14T10:45:08.634Z,100500.78
2023-05-14T10:47:43.200Z,100501.78
2023-05-14T10:50:15.177Z,100500.66
2023-05-14T10:52:44.502Z,100494.75
2023-05-14T10:55:16.417Z,100489.13
2023-05-14T10:57:45.796Z,100487.00
2023-05-14T11:00:15.731Z,100496.81
2023-05-14T11:02:45.881Z,100490.88
2023-05-14T11:05:17.411Z,100488.94
2023-05-14T11:07:47.903Z,100488.75
2023-05-14T11:10:23.302Z,100488.47
2023-05-14T11:12:52.792Z,100485.72
2023-05-14T11:15:23.256Z,100486.38
2023-05-14T11:17:54.093Z,100485.16
2023-05-14T11:20:22.939Z,100478.50
2023-05-14T11:22:52.695Z,100476.22
2023-05-14T11:25:21.848Z,100480.56
2023-05-14T11:27:51.532Z,100478.91
2023-05-14T11:30:23.035Z,100479.53
2023-05-14T11:32:54.336Z,100477.88
2023-05-14T11:35:22.623Z,100477.75
2023-05-14T11:37:53.165Z,100478.13
2023-05-14T11:40:25.251Z,100474.53
2023-05-14T11:42:53.768Z,100470.38
2023-05-14T11:45:29.896Z,100466.22
2023-05-14T11:48:00.117Z,100467.97
2023-05-14T11:50:31.320Z,100462.69
2023-05-14T11:52:59.443Z,100464.94
2023-05-14T11:55:28.097Z,100459.94
2023-05-14T11:57:57.817Z,100460.22
2023-05-14T12:00:27.921Z,100456.16
2023-05-14T12:02:56.537Z,100456.78
2023-05-14T12:05:26.391Z,100447.25
2023-05-14T12:07:58.532Z,100446.53
2023-05-14T12:10:30.103Z,100442.09
2023-05-14T12:12:58.890Z,100434.53
2023-05-14T12:15:30.408Z,100441.91
2023-05-14T12:17:59.317Z,100439.56
2023-05-14T12:20:31.536Z,100432.25
2023-05-14T12:23:00.522Z,100426.28
2023-05-14T12:25:28.900Z,100420.81
2023-05-14T12:27:57.437Z,100418.94
2023-05-14T12:30:25.285Z,100414.50
2023-05-14T12:32:53.571Z,100405.94
2023-05-14T12:35:23.399Z,100395.09
2023-05-14T12:37:53.214Z,100396.44
2023-05-14T12:40:23.634Z,100392.72
2023-05-14T12:42:53.050Z,100383.41
2023-05-14T12:45:22.904Z,100379.06
2023-05-14T12:47:51.548Z,100378.84
2023-05-14T12:50:20.635Z,100376.59
2023-05-14T12:52:49.183Z,100378.22
2023-05-14T12:55:18.802Z,100374.94
2023-05-14T12:57:47.080Z,100374.94
2023-05-14T13:00:16.404Z,100366.41
2023-05-14T13:02:44.857Z,100357.50
2023-05-14T13:05:13.179Z,100355.81
2023-05-14T13:07:41.741Z,100351.84
2023-05-14T13:10:11.708Z,100349.94
2023-05-14T13:12:41.677Z,100348.69
2023-05-14T13:15:11.492Z,100339.97
2023-05-14T13:17:41.384Z,100340.22
2023-05-14T13:20:12.137Z,100328.34
2023-05-14T13:22:43.390Z,100326.81
2023-05-14T13:25:16.636Z,100332.63
2023-05-14T13:27:45.931Z,100325.13
2023-05-14T13:30:14.723Z,100330.25
2023-05-14T13:32:46.473Z,100323.50
2023-05-14T13:35:16.899Z,100318.81
2023-05-14T13:37:45.762Z,100315.84
2023-05-14T13:40:18.338Z,100315.59
2023-05-14T13:42:48.726Z,100308.81
2023-05-14T13:45:17.110Z,100315.31
2023-05-14T13:47:48.766Z,100302.19
2023-05-14T13:50:22.192Z,100301.53
2023-05-14T13:52:51.015Z,100298.34
2023-05-14T13:55:19.227Z,100295.28
2023-05-14T13:57:51.102Z,100297.09
2023-05-14T14:00:20.422Z,100286.69
2023-05-14T14:02:49.582Z,100280.03
2023-05-14T14:05:18.220Z,100282.59
2023-05-14T14:07:47.583Z,100275.19
2023-05-14T14:10:18.827Z,100266.97
2023-05-14T14:12:51.576Z,100266.91
2023-05-14T14:15:19.744Z,100257.06
2023-05-14T14:17:48.439Z,100253.94
2023-05-14T14:20:19.239Z,100247.38
2023-05-14T14:22:48.297Z,100243.38
2023-05-14T14:25:16.419Z,100240.88
2023-05-14T14:27:47.372Z,100238.25
2023-05-14T14:30:16.879Z,100233.94
2023-05-14T14:32:46.330Z,100240.91
2023-05-14T14:35:17.894Z,100232.31
2023-05-14T14:37:50.764Z,100223.84
2023-05-14T14:40:19.260Z,100226.38
2023-05-14T14:42:50.037Z,100221.84
2023-05-14T14:45:19.826Z,100220.56
2023-05-14T14:47:50.869Z,100209.25
2023-05-14T14:50:19.134Z,100212.03
2023-05-14T14:52:50.176Z,100210.91
2023-05-14T14:55:18.331Z,100205.22
2023-05-14T14:57:52.563Z,100203.91
2023-05-14T15:00:22.911Z,100210.88
2023-05-14T15:02:51.240Z,100209.81
2023-05-14T15:05:19.341Z,100198.72
2023-05-14T15:07:49.986Z,100200.91
2023-05-14T15:10:18.516Z,100200.44
2023-05-14T15:12:46.831Z,100208.63
2023-05-14T15:15:16.047Z,100209.50
2023-05-14T15:17:48.391Z,100202.19
2023-05-14T15:20:17.318Z,100201.22
2023-05-14T15:22:45.839Z,100202.59
2023-05-14T15:25:15.301Z,100202.84
2023-05-14T15:27:43.457Z,100198.06
2023-05-14T15:30:15.836Z,100204.00
2023-05-14T15:32:45.695Z,100201.34
2023-05-14T15:35:15.534Z,100210.31
2023-05-14T15:37:47.056Z,100211.25
2023-05-14T15:40:15.132Z,100214.03
2023-05-14T15:42:46.860Z,100220.97
2023-05-14T15:45:15.481Z,100213.47
2023-05-14T15:47:44.244Z,100210.13
2023-05-14T15:50:12.736Z,100211.91
2023-05-14T15:52:45.068Z,100211.59
2023-05-14T15:55:13.568Z,100221.78
2023-05-14T15:57:44.300Z,100222.44
2023-05-14T16:00:16.343Z,100217.75
2023-05-14T16:02:44.852Z,100222.41
2023-05-14T16:05:13.315Z,100222.44
2023-05-14T16:07:41.793Z,100218.94
2023-05-14T16:10:12.548Z,100216.22
2023-05-14T16:12:40.626Z,100217.53
2023-05-14T16:15:10.802Z,100224.63
2023-05-14T16:17:39.315Z,100213.28
2023-05-14T16:20:09.724Z,100207.28
2023-05-14T16:22:39.437Z,100220.47
2023-05-14T16:25:08.224Z,100206.28
2023-05-14T16:27:37.923Z,100213.19
2023-05-14T16:30:11.097Z,100209.75
2023-05-14T16:32:41.639Z,100217.41
2023-05-14T16:35:12.456Z,100222.09
2023-05-14T16:37:40.752Z,100221.13
2023-05-14T16:40:12.183Z,100216.31
2023-05-14T16:42:41.540Z,100219.72
2023-05-14T16:45:12.752Z,100220.97
2023-05-14T16:47:43.450Z,100216.31
2023-05-14T16:50:12.000Z,100211.22
2023-05-14T16:52:40.097Z,100209.69
2023-05-14T16:55:11.062Z,100205.97
2023-05-14T16:57:44.278Z,100194.69
2023-05-14T17:00:15.526Z,100199.34
2023-05-14T17:02:43.575Z,100200.31
2023-05-14T17:05:11.673Z,100198.28
2023-05-14T17:07:40.038Z,100194.25
2023-05-14T17:10:09.274Z,100196.66
2023-05-14T17:12:37.904Z,100192.63
2023-05-14T17:15:08.161Z,100197.69
2023-05-14T17:17:37.553Z,100197.28
2023-05-14T17:20:07.094Z,100191.88
2023-05-14T17:22:35.507Z,100196.19
2023-05-14T17:25:04.307Z,100191.53
2023-05-14T17:27:36.140Z,100192.72
2023-05-14T17:30:05.053Z,100195.00
2023-05-14T17:32:33.358Z,100188.81
2023-05-14T17:35:02.907Z,100189.38
2023-05-14T17:37:32.015Z,100193.00
2023-05-14T17:40:02.221Z,100195.97
2023-05-14T17:42:30.470Z,100196.19
2023-05-14T17:44:59.125Z,100197.84
2023-05-14T17:47:27.496Z,100206.38
2023-05-14T17:49:56.014Z,100199.44
2023-05-14T17:52:25.781Z,100206.94
2023-05-14T17:54:56.515Z,100209.97
2023-05-14T17:57:25.895Z,100219.56
2023-05-14T17:59:54.069Z,100213.03
2023-05-14T18:02:23.372Z,100211.91
2023-05-14T18:04:51.500Z,100212.00
2023-05-14T18:07:20.734Z,100215.00
2023-05-14T18:09:50.266Z,100219.00
2023-05-14T18:12:18.363Z,100219.69
2023-05-14T18:14:48.784Z,100221.41
2023-05-14T18:17:17.626Z,100227.84
2023-05-14T18:19:48.192Z,100228.81
2023-05-14T18:22:17.560Z,100230.47
2023-05-14T18:24:51.652Z,100238.16
2023-05-14T18:27:22.278Z,100239.81
2023-05-14T18:29:51.944Z,100245.97
2023-05-14T18:32:22.556Z,100244.88
2023-05-14T18:34:50.920Z,100241.00
2023-05-14T18:37:24.832Z,100247.19
2023-05-14T18:39:57.432Z,100256.78
2023-05-14T18:42:26.178Z,100245.53
2023-05-14T18:44:54.174Z,100250.78
2023-05-14T18:47:22.822Z,100245.13
2023-05-14T18:49:55.038Z,100253.84
2023-05-14T18:52:24.343Z,100264.41
2023-05-14T18:54:55.830Z,100263.25
2023-05-14T18:57:29.175Z,100263.50
2023-05-14T18:59:58.090Z,100263.03
2023-05-14T19:02:29.122Z,100264.34
2023-05-14T19:04:57.600Z,100272.88
2023-05-14T19:07:27.731Z,100273.19
2023-05-14T19:09:58.648Z,100268.91
2023-05-14T19:12:28.934Z,100274.28
2023-05-14T19:14:57.162Z,100281.97
2023-05-14T19:17:32.720Z,100296.00
2023-05-14T19:20:01.214Z,100296.22
2023-05-14T19:22:33.550Z,100301.88
2023-05-14T19:25:06.886Z,100303.25
2023-05-14T19:27:41.108Z,100301.25
2023-05-14T19:30:10.050Z,100301.94
2023-05-14T19:32:40.688Z,100304.75
2023-05-14T19:35:09.308Z,100303.47
2023-05-14T19:37:37.617Z,100296.63
2023-05-14T19:40:07.216Z,100296.13
2023-05-14T19:42:35.469Z,100296.28
2023-05-14T19:45:08.496Z,100292.81
2023-05-14T19:47:39.987Z,100300.13
2023-05-14T19:50:15.791Z,100297.66
2023-05-14T19:52:44.067Z,100300.47
2023-05-14T19:55:14.414Z,100296.31
2023-05-14T19:57:42.682Z,100300.81
2023-05-14T20:00:15.482Z,100304.16
2023-05-14T20:02:46.216Z,100311.44
2023-05-14T20:05:15.458Z,100310.78
2023-05-14T20:07:47.062Z,100309.97
2023-05-14T20:10:15.666Z,100312.63
2023-05-14T20:12:43.933Z,100315.28
2023-05-14T20:15:13.914Z,100314.97
2023-05-14T20:17:48.181Z,100310.81
2023-05-14T20:20:21.010Z,100303.81
2023-05-14T20:22:49.211Z,100306.66
2023-05-14T20:25:18.387Z,100293.50
2023-05-14T20:27:46.598Z,100293.84
2023-05-14T20:30:22.208Z,100293.50
2023-05-14T20:32:51.221Z,100297.47
2023-05-14T20:35:19.600Z,100294.00
2023-05-14T20:37:49.523Z,100295.16
2023-05-14T20:40:21.440Z,100296.31
2023-05-14T20:42:52.531Z,100293.50
2023-05-14T20:45:23.389Z,100292.50
2023-05-14T20:47:54.790Z,100301.28
2023-05-14T20:50:27.442Z,100292.47
2023-05-14T20:52:57.969Z,100288.13
2023-05-14T20:55:28.198Z,100302.41
2023-05-14T20:57:56.588Z,100296.03
2023-05-14T21:00:26.492Z,100291.34
2023-05-14T21:02:54.753Z,100287.69
2023-05-14T21:05:23.065Z,100286.50
2023-05-14T21:07:51.518Z,100287.16
2023-05-14T21:10:20.081Z,100286.63
2023-05-14T21:12:47.933Z,100284.47
2023-05-14T21:15:16.188Z,100284.09
2023-05-14T21:17:46.024Z,100286.94
2023-05-14T21:20:15.594Z,100280.41
2023-05-14T21:22:46.619Z,100283.88
2023-05-14T21:25:14.844Z,100277.88
2023-05-14T21:27:43.321Z,100275.03
2023-05-14T21:30:12.930Z,100280.50
2023-05-14T21:32:42.453Z,100277.03
2023-05-14T21:35:12.288Z,100274.16
2023-05-14T21:37:40.869Z,100285.59
2023-05-14T21:40:12.181Z,100277.25
2023-05-14T21:42:42.551Z,100270.91
2023-05-14T21:45:11.544Z,100259.91
2023-05-14T21:47:40.268Z,100260.72
2023-05-14T21:50:13.755Z,100257.50
2023-05-14T21:52:41.700Z,100261.63
2023-05-14T21:55:12.612Z,100264.56
2023-05-14T21:57:41.892Z,100268.03
2023-05-14T22:00:17.148Z,100266.78
2023-05-14T22:02:45.859Z,100264.09
2023-05-14T22:05:15.872Z,100259.38
2023-05-14T22:07:44.411Z,100259.19
2023-05-14T22:10:14.678Z,100261.59
2023-05-14T22:12:44.446Z,100261.78
2023-05-14T22:15:13.948Z,100263.91
2023-05-14T22:17:43.094Z,100262.53
2023-05-14T22:20:12.200Z,100256.03
2023-05-14T22:22:41.722Z,100258.28
2023-05-14T22:25:11.388Z,100251.63
2023-05-14T22:27:39.437Z,100252.91
2023-05-14T22:30:09.234Z,100251.25
2023-05-14T22:32:37.494Z,100250.03
2023-05-14T22:35:06.211Z,100239.72
2023-05-14T22:37:34.368Z,100247.69
2023-05-14T22:40:09.112Z,100249.78
2023-05-14T22:42:38.736Z,100253.91
2023-05-14T22:45:11.241Z,100253.50
2023-05-14T22:47:40.393Z,100244.19
2023-05-14T22:50:11.598Z,100249.25
2023-05-14T22:52:40.332Z,100254.28
2023-05-14T22:55:12.758Z,100254.28
2023-05-14T22:57:43.950Z,100240.13
2023-05-14T23:00:14.628Z,100244.06
2023-05-14T23:02:43.285Z,100241.47
2023-05-14T23:05:12.633Z,100231.16
2023-05-14T23:07:43.164Z,100236.63
2023-05-14T23:10:13.644Z,100235.75
2023-05-14T23:12:42.435Z,100227.59
2023-05-14T23:15:11.986Z,100230.81
2023-05-14T23:17:43.090Z,100239.88
2023-05-14T23:20:12.707Z,100229.44
2023-05-14T23:22:42.583Z,100230.88
2023-05-14T23:25:12.321Z,100224.72
2023-05-14T23:27:42.245Z,100228.34
2023-05-14T23:30:13.290Z,100213.59
2023-05-14T23:32:41.238Z,100219.31
2023-05-14T23:35:09.802Z,100222.41
2023-05-14T23:37:48.042Z,100219.63
2023-05-14T23:40:18.818Z,100213.25
2023-05-14T23:42:47.189Z,100200.31
2023-05-14T23:45:17.582Z,100213.69
2023-05-14T23:47:46.054Z,100208.84
2023-05-14T23:50:15.826Z,100202.69
2023-05-14T23:52:48.519Z,100206.91
2023-05-14T23:55:18.704Z,100201.91
2023-05-14T23:57:46.898Z,100198.44
